Time;durP1;ratioP1;P1;durP2;ratioP2;P2;SDS_P1;SDS_P2;PMS_P1;PMS_P2;Temp;Humidity;BMP_temperature;BMP_pressure;BME280_temperature;BME280_humidity;BME280_pressure;Samples;Min_cycle;Max_cycle;Signal;HPM_P1;HPM_P2
2022/03/21 00:02:22;;;;;;;16.48;8.43;;;;;;;6.55;30.38;103072.63;5044116;28;20058;-82
2022/03/21 00:04:48;;;;;;;21.45;7.68;;;;;;;6.61;30.26;103086.56;5042473;28;20059;-79
2022/03/21 00:07:14;;;;;;;19.15;7.85;;;;;;;6.65;30.92;103095.28;5041486;28;20402;-79
2022/03/21 00:09:39;;;;;;;12.05;7.13;;;;;;;6.67;30.56;103102.25;5040700;28;20041;-80
2022/03/21 00:12:06;;;;;;;14.30;7.38;;;;;;;6.69;30.86;103087.56;5039482;28;20048;-78
2022/03/21 00:14:32;;;;;;;15.57;7.63;;;;;;;6.69;30.89;103091.88;5025347;28;20028;-80
2022/03/21 00:16:59;;;;;;;15.18;8.45;;;;;;;6.69;30.76;103064.16;5021917;28;20013;-81
2022/03/21 00:19:25;;;;;;;12.57;7.88;;;;;;;6.72;31.00;103071.13;5039244;28;20353;-81
2022/03/21 00:21:51;;;;;;;16.17;8.43;;;;;;;6.76;31.07;103092.81;5041731;28;20525;-75
2022/03/21 00:24:17;;;;;;;14.00;7.65;;;;;;;6.68;31.26;103097.91;5069759;28;20049;-78
2022/03/21 00:26:42;;;;;;;14.18;8.20;;;;;;;6.65;31.03;103100.50;5051770;28;20017;-78
2022/03/21 00:29:22;;;;;;;16.13;8.70;;;;;;;6.53;31.31;103096.03;5035655;28;20041;-80
2022/03/21 00:31:47;;;;;;;9.63;7.18;;;;;;;6.55;31.75;103103.81;5025206;28;20029;-78
2022/03/21 00:34:14;;;;;;;10.45;6.95;;;;;;;6.63;31.04;103113.44;5020053;28;20122;-78
2022/03/21 00:36:39;;;;;;;21.58;8.90;;;;;;;6.66;31.07;103107.41;5021478;28;20116;-81
2022/03/21 00:39:05;;;;;;;17.55;10.40;;;;;;;6.55;31.50;103093.41;5037093;28;20132;-79
2022/03/21 00:41:32;;;;;;;17.83;7.88;;;;;;;6.60;31.52;103097.84;5037712;28;20414;-74
2022/03/21 00:43:59;;;;;;;13.02;7.35;;;;;;;6.66;31.92;103097.91;4998680;28;20482;-80
2022/03/21 00:46:25;;;;;;;14.20;8.35;;;;;;;6.63;32.25;103105.66;5018080;28;20028;-78
2022/03/21 00:48:51;;;;;;;12.82;6.90;;;;;;;6.48;32.60;103097.66;5035675;28;20075;-78
2022/03/21 00:51:16;;;;;;;13.35;7.88;;;;;;;6.37;32.79;103092.31;5023308;28;20061;-80
2022/03/21 00:53:43;;;;;;;13.73;7.80;;;;;;;6.35;31.95;103094.06;5023525;28;20066;-77
2022/03/21 00:56:08;;;;;;;16.38;8.32;;;;;;;6.34;32.97;103107.88;5036177;28;20071;-79
2022/03/21 00:58:34;;;;;;;15.45;7.80;;;;;;;6.28;32.79;103100.00;5041285;28;20048;-78
2022/03/21 01:00:59;;;;;;;16.38;8.32;;;;;;;6.28;33.31;103081.81;5035903;28;20032;-79
2022/03/21 01:03:25;;;;;;;14.48;8.10;;;;;;;6.22;33.32;103071.34;5025749;28;20098;-79
2022/03/21 01:05:50;;;;;;;15.65;8.27;;;;;;;6.28;32.47;103081.81;5038628;28;20037;-78
2022/03/21 01:08:16;;;;;;;16.05;7.20;;;;;;;6.30;32.56;103108.69;5043334;28;20083;-79
2022/03/21 01:10:41;;;;;;;13.32;7.70;;;;;;;6.43;32.40;103110.59;5041374;28;20410;-80
2022/03/21 01:13:07;;;;;;;15.95;8.38;;;;;;;6.36;32.47;103097.53;5035771;28;20130;-77
2022/03/21 01:15:33;;;;;;;14.50;8.90;;;;;;;6.33;32.24;103093.16;5039206;28;20535;-81
2022/03/21 01:17:58;;;;;;;14.48;8.40;;;;;;;6.17;32.89;103118.03;4998650;28;20047;-81
2022/03/21 01:20:25;;;;;;;13.15;8.02;;;;;;;6.24;32.99;103118.97;5043985;28;20549;-79
2022/03/21 01:22:51;;;;;;;12.93;7.63;;;;;;;6.19;33.49;103100.72;5017976;28;20048;-79
2022/03/21 01:25:17;;;;;;;12.40;8.02;;;;;;;6.14;33.66;103101.50;4982336;28;1155364;-80
2022/03/21 01:27:43;;;;;;;15.32;8.23;;;;;;;6.05;32.74;103097.06;5038387;28;20064;-78
2022/03/21 01:30:14;;;;;;;13.75;7.85;;;;;;;6.03;32.30;103098.75;5038830;28;20025;-80
2022/03/21 01:32:42;;;;;;;15.60;7.97;;;;;;;6.02;33.35;103092.69;5025391;28;20163;-80
2022/03/21 01:35:09;;;;;;;12.82;7.55;;;;;;;6.01;32.91;103085.75;5007379;28;20036;-81
2022/03/21 01:37:35;;;;;;;13.65;8.32;;;;;;;6.01;32.12;103071.91;5038312;28;20041;-80
2022/03/21 01:40:00;;;;;;;13.32;8.02;;;;;;;6.03;32.03;103073.66;5043299;28;20067;-78
2022/03/21 01:42:26;;;;;;;18.05;8.60;;;;;;;6.11;31.95;103081.56;5005396;28;20676;-79
2022/03/21 01:44:53;;;;;;;16.70;8.02;;;;;;;6.10;32.06;103074.63;5040887;28;20025;-80
2022/03/21 01:47:19;;;;;;;12.20;7.38;;;;;;;6.00;31.85;103078.81;5021199;28;20083;-81
2022/03/21 01:49:45;;;;;;;19.85;9.15;;;;;;;5.98;31.90;103070.13;5025420;28;20455;-79
2022/03/21 01:52:11;;;;;;;19.27;8.95;;;;;;;5.91;32.16;103065.72;5034098;28;20521;-81
2022/03/21 01:57:21;;;;;;;11.27;6.80;;;;;;;5.89;31.86;103070.00;5017714;28;20103;-79
2022/03/21 01:59:49;;;;;;;17.75;8.32;;;;;;;5.87;32.41;103071.72;5038306;28;20037;-79
2022/03/21 02:02:15;;;;;;;15.07;9.32;;;;;;;5.83;32.54;103077.69;5039151;28;20032;-80
2022/03/21 02:04:42;;;;;;;12.73;7.40;;;;;;;5.73;32.90;103074.09;5003032;28;20045;-79
2022/03/21 02:07:08;;;;;;;13.88;7.90;;;;;;;5.60;32.91;103074.75;5038981;28;20127;-81
2022/03/21 02:09:33;;;;;;;12.40;6.82;;;;;;;5.60;32.82;103072.16;5042014;28;20034;-78
2022/03/21 02:11:59;;;;;;;12.07;7.18;;;;;;;5.51;32.95;103067.69;5020957;28;20270;-81
2022/03/21 02:14:25;;;;;;;14.38;7.35;;;;;;;5.52;33.06;103076.34;5041718;28;20493;-79
2022/03/21 02:16:50;;;;;;;17.40;7.80;;;;;;;5.46;33.00;103079.72;5039103;28;20055;-79
2022/03/21 02:19:15;;;;;;;18.17;7.65;;;;;;;5.44;33.30;103084.00;5036477;28;20048;-78
2022/03/21 02:22:03;;;;;;;13.27;6.72;;;;;;;5.41;32.84;103079.66;5023323;28;20139;-76
2022/03/21 02:24:35;;;;;;;13.55;6.47;;;;;;;5.44;33.01;103078.81;5028520;28;20454;-81
2022/03/21 02:27:01;;;;;;;;;;;;;;;5.35;32.72;103063.97;5028452;28;21377;-79
2022/03/21 02:29:29;;;;;;;12.10;5.50;;;;;;;5.07;32.78;103048.78;5027069;28;20226;-81
2022/03/21 02:31:55;;;;;;;12.80;7.53;;;;;;;5.07;33.14;103049.66;5020776;28;20032;-79
2022/03/21 02:34:24;;;;;;;14.25;6.97;;;;;;;5.10;32.60;103057.50;5036854;28;20695;-80
2022/03/21 02:36:54;;;;;;;11.98;6.82;;;;;;;5.18;32.52;103061.06;5022101;28;20080;-81
2022/03/21 02:39:20;;;;;;;11.70;5.68;;;;;;;5.14;32.09;103064.44;5058209;28;20040;-77
2022/03/21 02:41:47;;;;;;;9.23;5.82;;;;;;;5.14;32.36;103059.28;5047247;28;20077;-75
2022/03/21 02:44:13;;;;;;;15.18;7.18;;;;;;;5.20;31.64;103061.13;5031903;28;20033;-80
2022/03/21 02:46:38;;;;;;;13.48;6.78;;;;;;;5.29;31.81;103061.25;5038458;28;20682;-80
2022/03/21 02:49:04;;;;;;;13.20;6.50;;;;;;;5.20;32.18;103061.13;5020720;28;20051;-80
2022/03/21 02:51:36;;;;;;;12.75;6.80;;;;;;;5.28;31.74;103069.00;5039093;28;20036;-80
2022/03/21 02:54:01;;;;;;;11.23;6.50;;;;;;;5.14;31.86;103077.41;5018581;28;20375;-78
2022/03/21 02:56:27;;;;;;;11.98;7.13;;;;;;;5.18;32.01;103068.84;5037958;28;20234;-78
2022/03/21 02:58:53;;;;;;;13.27;6.55;;;;;;;5.04;32.08;103080.72;5024539;28;20070;-79
2022/03/21 03:01:18;;;;;;;12.27;6.57;;;;;;;5.14;31.81;103080.00;5037617;28;20036;-77
2022/03/21 03:03:45;;;;;;;11.73;6.07;;;;;;;5.09;31.83;103084.25;5018944;28;20067;-79
2022/03/21 03:06:11;;;;;;;12.43;7.30;;;;;;;5.13;32.29;103083.47;5001219;28;20033;-80
2022/03/21 03:08:39;;;;;;;15.02;6.45;;;;;;;5.13;32.18;103080.88;5018326;28;20048;-77
2022/03/21 03:11:05;;;;;;;12.63;6.40;;;;;;;5.08;32.00;103087.69;5020844;28;20029;-79
2022/03/21 03:13:31;;;;;;;12.05;6.55;;;;;;;5.00;32.36;103086.66;5038215;28;20107;-77
2022/03/21 03:15:57;;;;;;;14.73;7.07;;;;;;;4.98;32.46;103090.94;5025192;28;20124;-78
2022/03/21 03:18:22;;;;;;;11.45;5.95;;;;;;;4.94;32.45;103094.31;5039274;28;20037;-79
2022/03/21 03:20:50;;;;;;;12.60;6.78;;;;;;;4.96;32.44;103080.53;5040981;28;20678;-79
2022/03/21 03:23:21;;;;;;;13.57;7.35;;;;;;;4.94;32.29;103084.81;5035503;28;20039;-79
2022/03/21 03:25:51;;;;;;;17.80;6.53;;;;;;;4.93;32.71;103092.59;5037698;28;20048;-80
2022/03/21 03:28:16;;;;;;;14.85;6.70;;;;;;;4.87;32.86;103080.34;5018359;28;20487;-79
2022/03/21 03:30:42;;;;;;;8.10;5.10;;;;;;;4.85;32.83;103079.44;5020288;28;20044;-81
2022/03/21 03:33:08;;;;;;;11.02;6.65;;;;;;;4.90;32.80;103087.31;5023652;28;20130;-79
2022/03/21 03:35:34;;;;;;;9.45;6.07;;;;;;;4.90;32.63;103082.16;5020076;28;20130;-79
2022/03/21 03:38:00;;;;;;;11.18;6.15;;;;;;;4.83;32.72;103104.44;5018444;28;20033;-77
2022/03/21 03:40:26;;;;;;;13.40;6.53;;;;;;;4.75;32.53;103104.31;5039958;28;20024;-81
2022/03/21 03:42:52;;;;;;;11.35;6.47;;;;;;;4.88;32.61;103092.50;5038440;28;20631;-78
2022/03/21 03:45:17;;;;;;;13.75;5.90;;;;;;;4.76;32.47;103093.09;5037103;28;20183;-79
2022/03/21 03:47:43;;;;;;;9.45;5.90;;;;;;;4.73;32.33;103090.44;5016980;28;20178;-79
2022/03/21 03:50:09;;;;;;;9.85;5.50;;;;;;;4.77;32.83;103091.38;5036222;28;20033;-78
2022/03/21 03:52:34;;;;;;;11.95;6.85;;;;;;;4.79;32.84;103085.38;5025494;28;20072;-79
2022/03/21 03:55:00;;;;;;;14.25;6.68;;;;;;;4.73;32.44;103090.44;5020122;28;20036;-80
2022/03/21 03:57:25;;;;;;;11.98;6.03;;;;;;;4.59;32.80;103081.53;5041885;28;20128;-80
2022/03/21 03:59:51;;;;;;;12.45;6.15;;;;;;;4.55;33.16;103077.13;5023720;28;20052;-79
2022/03/21 04:02:17;;;;;;;12.35;6.97;;;;;;;4.56;32.84;103076.28;5034956;28;20053;-82
2022/03/21 04:04:42;;;;;;;11.77;5.45;;;;;;;4.63;32.71;103079.03;5021614;28;20028;-80
2022/03/21 04:07:08;;;;;;;10.55;6.30;;;;;;;4.61;33.25;103085.03;5035661;28;20084;-81
2022/03/21 04:09:34;;;;;;;14.90;6.03;;;;;;;4.45;33.06;103094.16;5020960;28;20029;-78
2022/03/21 04:11:59;;;;;;;13.23;6.53;;;;;;;4.32;33.33;103079.22;5023345;28;20603;-77
2022/03/21 04:14:25;;;;;;;13.82;6.63;;;;;;;4.41;33.35;103095.84;5027742;28;20459;-79
2022/03/21 04:16:51;;;;;;;10.40;6.22;;;;;;;4.41;33.63;103105.31;5021555;28;20156;-80
2022/03/21 04:19:16;;;;;;;12.70;6.35;;;;;;;4.46;33.40;103100.25;5022501;28;20084;-78
2022/03/21 04:21:42;;;;;;;8.73;6.22;;;;;;;4.53;32.85;103097.81;5022052;28;20028;-78
2022/03/21 04:24:08;;;;;;;13.45;7.13;;;;;;;4.40;33.01;103096.66;5003475;28;20410;-79
2022/03/21 04:26:34;;;;;;;12.75;5.97;;;;;;;4.45;33.57;103090.72;5023314;28;20036;-77
2022/03/21 04:29:02;;;;;;;11.07;5.82;;;;;;;4.39;34.06;103089.75;5026010;28;20110;-80
2022/03/21 04:31:28;;;;;;;11.52;6.80;;;;;;;4.19;33.93;103097.09;5027164;28;20119;-78
2022/03/21 04:33:53;;;;;;;9.40;6.07;;;;;;;4.11;34.07;103103.78;5043771;28;20554;-78
2022/03/21 04:36:19;;;;;;;10.05;6.30;;;;;;;4.13;34.39;103111.59;5022185;28;20071;-80
2022/03/21 04:38:45;;;;;;;12.25;6.40;;;;;;;4.02;34.60;103099.28;5038057;28;20059;-80
2022/03/21 04:41:10;;;;;;;11.35;6.03;;;;;;;3.82;34.95;103100.53;5021526;28;20029;-78
2022/03/21 04:43:36;;;;;;;9.45;6.10;;;;;;;3.60;35.32;103106.88;5026715;28;20040;-80
2022/03/21 04:46:01;;;;;;;12.63;5.70;;;;;;;3.45;36.26;103102.22;5038715;28;20033;-78
2022/03/21 04:48:27;;;;;;;33.60;7.03;;;;;;;3.29;36.62;103110.41;5037806;28;20045;-79
2022/03/21 04:50:52;;;;;;;13.93;6.95;;;;;;;3.39;36.09;103112.41;5036599;28;20040;-80
2022/03/21 04:53:18;;;;;;;7.82;4.72;;;;;;;3.33;35.99;103112.22;5025204;28;20076;-80
2022/03/21 04:55:43;;;;;;;11.38;7.18;;;;;;;3.29;36.46;103112.97;5056070;28;20024;-76
2022/03/21 04:58:10;;;;;;;9.30;5.57;;;;;;;3.19;36.95;103127.34;5064963;28;20037;-77
2022/03/21 05:00:37;;;;;;;10.45;5.13;;;;;;;3.08;37.20;103128.75;5021729;28;20194;-80
2022/03/21 05:03:07;;;;;;;11.77;5.65;;;;;;;3.04;37.25;103138.13;5025062;28;20044;-79
2022/03/21 05:05:34;;;;;;;12.73;6.82;;;;;;;3.03;37.49;103130.34;5039231;28;20075;-81
2022/03/21 05:08:02;;;;;;;11.70;6.50;;;;;;;2.91;37.33;103130.88;5023932;28;20074;-79
2022/03/21 05:10:29;;;;;;;14.73;6.70;;;;;;;2.87;37.62;103129.06;5043814;28;20091;-80
2022/03/21 05:12:55;;;;;;;12.43;6.95;;;;;;;2.95;37.15;103136.16;5022962;28;20068;-79
2022/03/21 05:15:20;;;;;;;12.48;5.35;;;;;;;3.10;36.43;103140.88;5022421;28;20091;-78
2022/03/21 05:17:46;;;;;;;10.50;5.65;;;;;;;3.33;36.09;103135.50;4994867;28;20151;-80
2022/03/21 05:20:16;;;;;;;9.02;5.95;;;;;;;3.49;36.65;103140.25;5017904;28;20032;-80
2022/03/21 05:31:04;;;;;;;10.30;5.63;;;;;;;3.41;36.98;103139.16;5041021;28;20041;-80
2022/03/21 05:36:26;;;;;;;11.50;6.15;;;;;;;3.19;36.76;103133.38;5041565;28;20201;-79
2022/03/21 05:38:52;;;;;;;12.32;6.18;;;;;;;3.12;36.66;103139.22;5011814;28;20259;-77
2022/03/21 05:41:18;;;;;;;15.07;6.55;;;;;;;3.06;36.53;103140.75;5022743;28;20068;-78
2022/03/21 05:43:44;;;;;;;15.07;6.68;;;;;;;2.96;36.91;103143.09;5020845;28;20043;-79
2022/03/21 05:46:09;;;;;;;13.98;6.93;;;;;;;2.93;36.72;103142.13;5043411;28;20043;-80
2022/03/21 05:48:51;;;;;;;11.85;6.18;;;;;;;2.87;36.79;103137.66;5036593;28;20053;-80
2022/03/21 05:51:18;;;;;;;13.25;5.85;;;;;;;2.95;36.43;103141.31;5038704;28;20143;-78
2022/03/21 05:53:47;;;;;;;10.07;6.25;;;;;;;2.99;36.51;103142.28;5038322;28;20508;-80
2022/03/21 05:56:13;;;;;;;12.50;6.88;;;;;;;3.07;36.03;103142.50;5035771;28;20028;-80
2022/03/21 05:58:39;;;;;;;11.07;6.35;;;;;;;3.02;36.01;103139.78;5021918;28;20079;-78
2022/03/21 06:01:05;;;;;;;13.73;6.28;;;;;;;2.96;36.31;103139.63;5026599;28;20036;-78
2022/03/21 06:03:31;;;;;;;13.65;7.20;;;;;;;2.98;36.39;103141.44;5036154;28;20257;-74
2022/03/21 06:05:57;;;;;;;10.55;5.65;;;;;;;3.01;36.22;103137.19;5021205;28;20036;-78
2022/03/21 06:08:24;;;;;;;13.23;5.82;;;;;;;3.03;35.66;103143.28;5035490;28;20087;-79
2022/03/21 06:10:50;;;;;;;10.70;6.60;;;;;;;3.14;35.29;103155.66;5018194;28;20501;-80
2022/03/21 06:13:16;;;;;;;9.50;5.18;;;;;;;3.27;35.14;103155.97;5020949;28;20041;-79
2022/03/21 06:15:41;;;;;;;10.77;5.50;;;;;;;3.44;35.07;103156.47;5020444;28;20068;-80
2022/03/21 06:18:11;;;;;;;13.13;5.97;;;;;;;3.49;34.92;103157.44;5020103;28;20044;-80
2022/03/21 06:20:39;;;;;;;9.43;5.63;;;;;;;3.48;34.80;103159.16;5035971;28;20250;-78
2022/03/21 06:23:05;;;;;;;13.40;6.07;;;;;;;3.37;35.03;103166.63;4991222;28;20045;-81
2022/03/21 06:25:31;;;;;;;10.48;6.40;;;;;;;3.43;35.09;103158.19;5018463;28;20502;-79
2022/03/21 06:27:56;;;;;;;11.85;6.38;;;;;;;3.43;35.30;103163.34;5017636;28;20444;-79
2022/03/21 06:30:22;;;;;;;11.25;5.75;;;;;;;3.54;35.29;103169.69;5021733;28;20505;-80
2022/03/21 06:32:48;;;;;;;11.57;6.18;;;;;;;3.67;35.02;103172.56;5018413;28;20044;-79
2022/03/21 06:35:14;;;;;;;9.90;6.32;;;;;;;4.02;34.86;103170.88;5038270;28;20036;-79
2022/03/21 06:37:41;;;;;;;12.35;6.50;;;;;;;4.22;34.00;103177.38;5037085;28;20477;-80
2022/03/21 06:40:08;;;;;;;13.15;6.50;;;;;;;4.53;33.88;103174.63;5004269;28;20037;-79
2022/03/21 06:42:33;;;;;;;13.82;6.70;;;;;;;5.53;32.00;103174.09;5018585;28;20044;-79
2022/03/21 06:44:59;;;;;;;7.72;5.40;;;;;;;6.72;30.17;103177.66;5036872;28;20072;-80
2022/03/21 06:47:24;;;;;;;13.85;6.57;;;;;;;7.89;27.51;103178.91;5022561;28;20609;-78
2022/03/21 06:49:50;;;;;;;11.65;5.53;;;;;;;8.55;26.37;103177.63;5019997;28;20609;-80
2022/03/21 06:52:18;;;;;;;10.48;5.45;;;;;;;8.92;25.52;103184.81;5023712;28;20407;-80
2022/03/21 06:54:51;;;;;;;11.95;5.03;;;;;;;9.44;24.99;103178.84;5019325;28;20119;-79
2022/03/21 06:57:17;;;;;;;11.90;6.07;;;;;;;10.32;24.02;103182.34;5037517;28;20085;-79
2022/03/21 06:59:48;;;;;;;11.30;6.10;;;;;;;10.39;23.40;103179.72;5019705;28;20041;-78
2022/03/21 07:02:15;;;;;;;10.35;5.80;;;;;;;11.37;22.71;103178.41;5010224;28;20135;-80
2022/03/21 07:04:41;;;;;;;14.30;5.85;;;;;;;11.70;21.80;103186.91;5004311;28;20045;-80
2022/03/21 07:07:07;;;;;;;17.50;6.65;;;;;;;11.73;21.65;103181.66;5017764;28;20492;-81
2022/03/21 07:09:32;;;;;;;12.73;6.78;;;;;;;11.75;21.27;103192.09;5033737;28;20083;-78
2022/03/21 07:11:58;;;;;;;7.53;5.40;;;;;;;11.97;21.01;103187.59;5018842;28;20127;-81
2022/03/21 07:14:23;;;;;;;9.93;5.85;;;;;;;12.35;21.18;103183.72;5041309;28;20098;-79
2022/03/21 07:16:49;;;;;;;8.75;6.28;;;;;;;12.29;20.79;103182.91;5022801;28;20051;-79
2022/03/21 07:19:15;;;;;;;7.35;5.47;;;;;;;12.47;20.68;103179.22;5004244;28;20142;-79
2022/03/21 07:21:40;;;;;;;10.45;6.30;;;;;;;13.02;20.32;103180.28;5039777;28;20239;-79
2022/03/21 07:24:07;;;;;;;8.85;6.18;;;;;;;12.89;20.90;103190.09;5020993;28;20049;-79
2022/03/21 07:26:34;;;;;;;9.35;6.95;;;;;;;13.13;20.31;103181.91;5036311;28;20036;-81
2022/03/21 07:29:00;;;;;;;10.07;6.40;;;;;;;12.93;21.33;103180.41;5019529;28;20487;-79
2022/03/21 07:31:26;;;;;;;9.45;6.57;;;;;;;13.15;20.59;103181.00;5037335;28;20032;-79
2022/03/21 07:33:51;;;;;;;9.65;6.13;;;;;;;14.11;19.53;103186.47;5018558;28;20029;-78
2022/03/21 07:36:17;;;;;;;13.40;7.15;;;;;;;14.62;19.38;103190.78;5022077;28;20075;-79
2022/03/21 07:38:42;;;;;;;8.98;6.22;;;;;;;14.83;19.37;103180.69;5035519;28;20068;-79
2022/03/21 07:41:08;;;;;;;10.98;6.28;;;;;;;14.85;18.91;103192.06;5034166;28;20048;-81
2022/03/21 07:43:37;;;;;;;11.02;5.78;;;;;;;14.50;18.61;103191.03;5018456;28;20605;-80
2022/03/21 07:48:50;;;;;;;11.77;6.93;;;;;;;15.04;18.54;103193.41;5040682;28;20428;-78
2022/03/21 07:51:16;;;;;;;8.70;6.22;;;;;;;15.36;17.90;103194.47;5031741;28;20437;-81
2022/03/21 07:53:41;;;;;;;9.48;6.07;;;;;;;15.94;17.93;103198.28;5044119;28;20044;-84
2022/03/21 07:56:08;;;;;;;9.90;6.30;;;;;;;16.35;17.38;103206.91;5048440;28;20104;-80
2022/03/21 07:58:33;;;;;;;9.23;6.10;;;;;;;16.63;17.11;103201.72;5017234;28;20045;-79
2022/03/21 08:01:00;;;;;;;7.57;5.40;;;;;;;16.11;17.17;103204.94;5029951;28;20155;-81
2022/03/21 08:03:27;;;;;;;10.38;7.10;;;;;;;15.97;17.61;103203.50;5028955;28;20775;-80
2022/03/21 08:05:53;;;;;;;9.50;6.90;;;;;;;15.70;17.40;103202.41;5035029;28;20091;-81
2022/03/21 08:08:20;;;;;;;15.70;7.13;;;;;;;15.49;18.12;103211.72;5046230;28;20263;-81
2022/03/21 08:10:48;;;;;;;10.73;6.78;;;;;;;15.46;17.76;103201.25;5027653;28;20051;-79
2022/03/21 08:13:17;;;;;;;10.20;6.13;;;;;;;15.53;17.59;103202.84;5031905;28;20041;-79
2022/03/21 08:15:44;;;;;;;10.32;6.65;;;;;;;15.27;17.81;103210.50;5020850;28;20276;-80
2022/03/21 08:18:12;;;;;;;11.15;7.05;;;;;;;16.20;17.52;103200.28;5040879;28;20041;-80
2022/03/21 08:20:40;;;;;;;9.93;5.90;;;;;;;16.83;16.35;103206.44;5039022;28;20111;-80
2022/03/21 08:23:08;;;;;;;11.25;6.40;;;;;;;16.79;16.64;103199.50;5039708;28;20128;-78
2022/03/21 08:25:36;;;;;;;11.48;6.25;;;;;;;17.19;16.43;103205.38;5021850;28;20182;-79
2022/03/21 08:28:01;;;;;;;10.95;6.90;;;;;;;16.94;16.55;103205.25;5026019;28;20133;-78
2022/03/21 08:30:29;;;;;;;8.15;6.70;;;;;;;17.10;16.72;103210.94;5044140;28;20487;-80
2022/03/21 08:32:55;;;;;;;9.98;6.82;;;;;;;17.43;16.34;103209.88;5036084;28;20446;-80
2022/03/21 08:35:23;;;;;;;10.80;6.63;;;;;;;16.88;16.99;103213.38;5049168;28;20041;-79
2022/03/21 08:37:48;;;;;;;11.95;7.22;;;;;;;16.76;17.16;103204.91;5041320;28;20059;-82
2022/03/21 08:40:14;;;;;;;15.95;7.68;;;;;;;16.82;17.24;103204.72;5047162;28;20506;-80
2022/03/21 08:42:40;;;;;;;13.07;6.82;;;;;;;16.08;17.82;103205.00;5030015;28;20452;-78
2022/03/21 08:45:07;;;;;;;10.40;7.43;;;;;;;15.84;17.82;103212.63;5031384;28;20055;-77
2022/03/21 08:47:34;;;;;;;14.13;7.53;;;;;;;15.47;19.00;103213.53;5020656;28;20067;-80
2022/03/21 08:49:59;;;;;;;12.68;6.90;;;;;;;15.47;18.75;103216.16;5041913;28;20055;-81
2022/03/21 08:52:25;;;;;;;11.75;7.03;;;;;;;15.38;18.72;103211.09;5023755;28;20063;-82
2022/03/21 08:54:51;;;;;;;11.75;7.50;;;;;;;15.87;18.98;103204.63;5009501;28;20044;-81
2022/03/21 08:57:17;;;;;;;10.32;5.78;;;;;;;16.48;18.42;103201.28;5017047;28;20073;-80
2022/03/21 08:59:44;;;;;;;11.18;7.03;;;;;;;15.71;19.12;103209.44;5044975;28;20040;-78
2022/03/21 09:02:10;;;;;;;12.90;6.72;;;;;;;16.18;19.45;103214.44;5039912;28;20065;-80
2022/03/21 09:04:35;;;;;;;12.43;6.50;;;;;;;15.47;19.51;103210.03;5038830;28;20104;-79
2022/03/21 09:07:02;;;;;;;11.10;7.35;;;;;;;14.93;20.37;103222.59;5029358;28;20040;-80
2022/03/21 09:09:28;;;;;;;15.80;6.50;;;;;;;14.14;21.77;103211.84;5044662;28;20115;-76
2022/03/21 09:11:54;;;;;;;14.75;6.97;;;;;;;12.65;23.58;103212.22;5025563;28;20128;-80
2022/03/21 09:14:20;;;;;;;12.07;7.78;;;;;;;13.27;22.31;103221.97;5027422;28;20025;-79
2022/03/21 09:16:45;;;;;;;9.20;5.93;;;;;;;13.41;22.74;103213.91;5023668;28;20045;-80
2022/03/21 09:19:11;;;;;;;12.77;6.85;;;;;;;13.50;23.13;103219.88;5004452;28;20048;-77
2022/03/21 09:21:37;;;;;;;12.73;7.25;;;;;;;13.50;22.86;103219.88;5049808;28;20040;-80
2022/03/21 09:24:03;;;;;;;16.88;8.63;;;;;;;13.97;22.54;103206.03;5041589;28;20139;-79
2022/03/21 09:26:29;;;;;;;17.77;7.43;;;;;;;13.86;22.95;103212.31;5029922;28;20037;-80
2022/03/21 09:29:03;;;;;;;11.60;7.57;;;;;;;13.99;23.02;103206.88;5006038;28;20103;-78
2022/03/21 09:31:41;;;;;;;10.82;7.43;;;;;;;14.19;22.61;103210.00;5044206;28;20425;-78
2022/03/21 09:34:08;;;;;;;14.25;7.35;;;;;;;14.56;22.06;103202.28;5010951;28;20079;-81
2022/03/21 09:36:34;;;;;;;10.68;6.68;;;;;;;14.63;22.24;103205.66;5027261;28;20033;-78
2022/03/21 09:39:00;;;;;;;13.65;7.03;;;;;;;14.57;22.68;103211.06;5005674;28;20318;-79
2022/03/21 09:41:27;;;;;;;18.65;7.53;;;;;;;14.73;22.21;103211.63;5023638;28;20916;-80
2022/03/21 09:43:57;;;;;;;11.30;7.65;;;;;;;14.76;22.78;103206.28;5023324;28;20087;-79
2022/03/21 09:46:24;;;;;;;10.57;6.32;;;;;;;15.04;21.94;103211.84;5046223;28;20032;-80
2022/03/21 09:48:52;;;;;;;11.43;7.00;;;;;;;15.15;22.01;103209.84;5029855;28;20103;-78
2022/03/21 09:51:23;;;;;;;9.18;6.35;;;;;;;15.03;22.52;103214.50;5013903;28;20029;-77
2022/03/21 09:53:49;;;;;;;11.20;7.30;;;;;;;14.89;22.60;103214.81;5040391;28;20127;-79
2022/03/21 09:56:15;;;;;;;10.98;6.28;;;;;;;15.95;21.53;103207.94;5039817;28;20928;-78
2022/03/21 09:58:42;;;;;;;10.63;7.13;;;;;;;16.67;20.70;103202.50;5039301;28;20063;-81
2022/03/21 10:01:08;;;;;;;13.77;7.10;;;;;;;16.15;20.80;103206.56;5026270;28;20036;-81
2022/03/21 10:03:35;;;;;;;15.93;7.63;;;;;;;16.18;21.70;103209.16;5042066;28;20099;-79
2022/03/21 10:06:01;;;;;;;15.75;7.72;;;;;;;15.65;22.23;103201.66;5024160;28;20079;-79
2022/03/21 10:08:30;;;;;;;12.45;6.97;;;;;;;15.45;21.68;103206.56;5048646;28;20534;-78
2022/03/21 10:11:04;;;;;;;10.73;7.57;;;;;;;15.94;21.78;103208.84;5022646;28;20039;-77
2022/03/21 10:13:34;;;;;;;12.43;7.72;;;;;;;16.86;20.80;103207.25;5025135;28;22992;-80
2022/03/21 10:16:11;;;;;;;12.98;8.63;;;;;;;16.18;20.98;103209.16;5041740;28;20074;-78
2022/03/21 10:18:40;;;;;;;13.05;7.43;;;;;;;16.35;21.40;103201.66;5023941;28;20083;-78
2022/03/21 10:21:15;;;;;;;19.08;8.35;;;;;;;16.62;20.89;103202.63;5024826;28;20044;-78
2022/03/21 10:23:44;;;;;;;15.40;7.75;;;;;;;16.46;21.47;103208.38;5043072;28;20045;-76
2022/03/21 10:26:29;;;;;;;15.05;8.60;;;;;;;15.92;22.52;103207.16;5051436;28;20186;-77
2022/03/21 10:28:58;;;;;;;15.77;7.70;;;;;;;15.82;21.49;103211.81;4981080;28;20041;-77
2022/03/21 10:31:35;;;;;;;14.32;8.27;;;;;;;16.27;21.38;103202.75;5039975;28;20436;-78
2022/03/21 10:34:04;;;;;;;13.40;7.07;;;;;;;15.89;21.63;103201.97;5041930;28;20391;-78
2022/03/21 10:36:30;;;;;;;13.02;7.85;;;;;;;16.00;21.24;103200.81;5024478;28;20882;-80
2022/03/21 10:39:10;;;;;;;16.88;8.27;;;;;;;16.05;21.38;103202.47;5040417;28;20475;-81
2022/03/21 10:41:38;;;;;;;13.65;8.45;;;;;;;16.20;21.37;103197.63;5036687;28;20056;-78
2022/03/21 10:44:06;;;;;;;12.63;8.70;;;;;;;16.00;21.36;103194.69;5018313;28;20609;-78
2022/03/21 10:46:31;;;;;;;15.40;8.27;;;;;;;17.12;20.20;103196.75;5023820;28;20044;-79
2022/03/21 10:49:02;;;;;;;12.40;7.75;;;;;;;16.99;20.45;103198.91;5016682;28;20140;-78
2022/03/21 10:51:49;;;;;;;12.90;8.73;;;;;;;17.82;19.40;103198.91;5025064;28;20126;-78
2022/03/21 10:54:34;;;;;;;11.40;7.63;;;;;;;18.37;18.57;103198.78;5023670;28;20287;-81
2022/03/21 10:57:00;;;;;;;13.85;7.85;;;;;;;17.69;20.31;103200.22;5031772;28;20028;-81
2022/03/21 10:59:25;;;;;;;18.35;9.05;;;;;;;17.23;20.84;103202.56;5018805;28;20414;-80
2022/03/21 11:02:09;;;;;;;16.42;8.68;;;;;;;16.85;21.98;103200.25;5033643;28;20059;-79
2022/03/21 11:04:35;;;;;;;13.88;8.75;;;;;;;16.78;20.87;103194.31;5037838;28;20489;-79
2022/03/21 11:07:01;;;;;;;13.57;8.18;;;;;;;16.71;21.34;103198.88;5014652;28;20568;-79
2022/03/21 11:09:27;;;;;;;15.02;8.85;;;;;;;16.61;21.33;103194.75;5020906;28;20131;-78
2022/03/21 11:11:53;;;;;;;20.42;9.05;;;;;;;17.02;20.76;103203.22;5018689;28;20635;-78
2022/03/21 11:14:19;;;;;;;15.43;8.35;;;;;;;17.25;21.14;103202.53;5035901;28;20122;-80
2022/03/21 11:16:45;;;;;;;15.75;10.30;;;;;;;16.79;20.94;103199.50;5019811;28;20049;-77
2022/03/21 11:19:10;;;;;;;14.70;8.90;;;;;;;16.73;20.70;103191.75;5037186;28;20128;-81
2022/03/21 11:21:36;;;;;;;14.48;8.80;;;;;;;16.90;21.53;103198.34;5022980;28;20146;-78
2022/03/21 11:24:02;;;;;;;12.48;8.13;;;;;;;17.12;21.81;103199.41;5023762;28;20048;-79
2022/03/21 11:26:39;;;;;;;14.00;9.00;;;;;;;16.99;21.01;103195.41;5019998;28;20354;-80
2022/03/21 11:29:34;;;;;;;18.88;8.90;;;;;;;16.82;21.38;103195.91;5042451;28;20045;-79
2022/03/21 11:32:26;;;;;;;16.05;9.65;;;;;;;17.50;20.29;103192.06;5036766;28;20040;-79
2022/03/21 11:34:55;;;;;;;15.45;8.55;;;;;;;17.44;20.53;103194.88;5040363;28;20075;-78
2022/03/21 11:37:25;;;;;;;15.57;8.05;;;;;;;17.39;20.38;103195.03;5031458;28;20044;-79
2022/03/21 11:40:23;;;;;;;13.15;8.18;;;;;;;17.75;20.27;103192.09;5026382;28;20049;-78
2022/03/21 11:42:50;;;;;;;15.38;8.65;;;;;;;17.99;20.22;103185.09;5014528;28;20249;-78